Time;durP1;ratioP1;P1;durP2;ratioP2;P2;SDS_P1;SDS_P2;PMS_P1;PMS_P2;Temp;Humidity;BMP_temperature;BMP_pressure;BME280_temperature;BME280_humidity;BME280_pressure;Samples;Min_cycle;Max_cycle;Signal;HPM_P1;HPM_P2
2022/09/01 00:01:26;;;;;;;5.70;1.67;;;12.10;99.90;;;;;;5095236;28;20582;-68
2022/09/01 00:03:55;;;;;;;1.50;1.40;;;12.00;99.90;;;;;;5094409;28;20292;-68
2022/09/01 00:06:23;;;;;;;1.67;1.57;;;11.90;99.90;;;;;;5094746;28;20288;-69
2022/09/01 00:08:50;;;;;;;1.73;1.40;;;11.60;99.90;;;;;;5095537;28;20594;-68
2022/09/01 00:11:17;;;;;;;1.90;1.70;;;11.50;99.90;;;;;;5094938;28;20205;-69
2022/09/01 00:13:44;;;;;;;3.00;1.60;;;11.70;99.90;;;;;;5093648;28;20666;-68
2022/09/01 00:16:12;;;;;;;3.33;1.50;;;11.70;99.90;;;;;;5100779;28;20212;-68
2022/09/01 00:18:40;;;;;;;1.60;1.50;;;11.90;99.90;;;;;;5115089;27;20590;-68
2022/09/01 00:21:10;;;;;;;1.63;1.20;;;11.90;99.90;;;;;;5115468;27;20651;-68
2022/09/01 00:23:37;;;;;;;3.87;2.23;;;11.70;99.90;;;;;;5098802;28;20590;-68
2022/09/01 00:26:05;;;;;;;2.73;1.63;;;11.60;99.90;;;;;;5108508;28;20197;-68
2022/09/01 00:28:33;;;;;;;2.97;2.00;;;12.00;99.90;;;;;;5112918;28;20212;-68
2022/09/01 00:31:00;;;;;;;3.93;2.20;;;12.10;99.90;;;;;;5093189;28;20194;-68
2022/09/01 00:33:27;;;;;;;3.23;1.93;;;12.10;99.90;;;;;;5092619;28;20204;-68
2022/09/01 00:35:54;;;;;;;4.93;2.33;;;11.90;99.90;;;;;;5093578;28;20220;-68
2022/09/01 00:38:22;;;;;;;1.90;1.80;;;11.60;99.90;;;;;;5092400;28;20198;-68
2022/09/01 00:40:49;;;;;;;3.97;2.10;;;11.30;99.90;;;;;;5092514;28;20198;-69
2022/09/01 00:43:20;;;;;;;2.93;2.30;;;11.30;99.90;;;;;;5092211;28;20582;-68
2022/09/01 00:45:48;;;;;;;8.30;2.90;;;11.40;99.90;;;;;;5093474;28;20632;-68
2022/09/01 00:48:15;;;;;;;2.57;2.33;;;11.40;99.90;;;;;;5092238;28;20225;-68
2022/09/01 00:50:43;;;;;;;3.70;1.87;;;11.40;99.90;;;;;;5093312;28;20194;-68
2022/09/01 00:53:10;;;;;;;3.13;2.23;;;11.50;99.90;;;;;;5092938;28;20198;-68
2022/09/01 00:55:38;;;;;;;4.70;2.90;;;11.70;99.90;;;;;;5112315;27;20204;-68
2022/09/01 00:58:07;;;;;;;8.17;2.87;;;11.70;99.90;;;;;;5115255;27;20563;-69
2022/09/01 01:00:39;;;;;;;2.33;2.00;;;11.70;99.90;;;;;;5113303;28;20224;-69
2022/09/01 01:03:07;;;;;;;3.70;2.07;;;11.80;99.90;;;;;;5113882;28;20243;-69
2022/09/01 01:05:40;;;;;;;3.07;1.97;;;11.40;99.90;;;;;;5104525;28;20205;-68
2022/09/01 01:08:08;;;;;;;3.07;2.00;;;11.30;99.90;;;;;;5100508;28;20607;-68
2022/09/01 01:10:39;;;;;;;3.70;2.00;;;11.30;99.90;;;;;;5109129;27;20419;-68
2022/09/01 01:13:09;;;;;;;2.97;1.87;;;11.50;99.90;;;;;;5092655;28;20198;-68
2022/09/01 01:15:36;;;;;;;2.23;2.00;;;11.30;99.90;;;;;;5105481;28;20539;-69
2022/09/01 01:18:03;;;;;;;3.07;1.90;;;11.30;99.90;;;;;;5096203;28;20201;-68
2022/09/01 01:23:23;;;;;;;3.03;2.10;;;11.00;99.90;;;;;;5114202;27;20223;-68
2022/09/01 01:25:54;;;;;;;2.50;1.90;;;11.00;99.90;;;;;;5103764;28;20223;-68
2022/09/01 01:28:25;;;;;;;2.77;1.70;;;11.00;99.90;;;;;;5108546;28;20292;-68
2022/09/01 01:30:54;;;;;;;2.03;1.70;;;11.00;99.90;;;;;;5111288;28;20228;-68
2022/09/01 01:33:24;;;;;;;3.03;1.87;;;10.90;99.90;;;;;;5098468;28;20640;-68
2022/09/01 01:35:54;;;;;;;2.57;1.90;;;10.90;99.90;;;;;;5096806;28;20196;-69
2022/09/01 01:38:21;;;;;;;3.17;2.00;;;10.90;99.90;;;;;;5105661;28;20194;-68
2022/09/01 01:40:49;;;;;;;2.70;1.70;;;10.90;99.90;;;;;;5090939;28;20671;-69
2022/09/01 01:43:18;;;;;;;3.47;2.20;;;11.20;99.90;;;;;;5100026;28;20221;-69
2022/09/01 01:45:46;;;;;;;2.93;2.00;;;11.20;99.90;;;;;;5123863;27;20192;-69
2022/09/01 01:48:14;;;;;;;4.07;2.00;;;10.90;99.90;;;;;;5096877;27;20202;-68
2022/09/01 01:50:41;;;;;;;3.33;2.00;;;10.50;99.90;;;;;;5103573;28;20200;-68
2022/09/01 01:53:12;;;;;;;2.10;1.77;;;10.50;99.90;;;;;;5100317;28;20197;-68
2022/09/01 01:55:40;;;;;;;2.23;2.03;;;10.50;99.90;;;;;;5092628;28;20212;-69
2022/09/01 01:58:10;;;;;;;2.83;2.13;;;10.80;99.90;;;;;;5096881;28;20203;-68
2022/09/01 02:00:43;;;;;;;3.27;2.00;;;11.00;99.90;;;;;;5096818;28;20200;-69
2022/09/01 02:03:11;;;;;;;2.30;2.10;;;11.00;99.90;;;;;;5102894;28;20216;-69
2022/09/01 02:05:39;;;;;;;5.30;2.40;;;11.10;99.90;;;;;;5102758;28;20202;-69
2022/09/01 02:08:09;;;;;;;2.40;2.27;;;11.20;99.90;;;;;;5092559;28;20200;-68
2022/09/01 02:10:40;;;;;;;2.33;1.90;;;11.40;99.90;;;;;;5091694;28;20209;-69
2022/09/01 02:13:10;;;;;;;2.57;2.37;;;11.40;99.90;;;;;;5098009;28;20216;-68
2022/09/01 02:15:43;;;;;;;2.90;2.40;;;11.50;99.90;;;;;;5120994;28;20651;-68
2022/09/01 02:18:13;;;;;;;6.37;2.50;;;11.50;99.90;;;;;;5104961;28;20211;-68
2022/09/01 02:20:39;;;;;;;3.93;2.00;;;11.40;99.90;;;;;;5109181;28;20209;-69
2022/09/01 02:23:09;;;;;;;3.67;2.20;;;11.30;99.90;;;;;;5113163;28;20223;-69
2022/09/01 02:25:37;;;;;;;2.47;1.93;;;11.30;99.90;;;;;;5096823;28;20201;-69
2022/09/01 02:28:08;;;;;;;3.13;1.97;;;11.30;99.90;;;;;;5105548;28;20198;-69
2022/09/01 02:30:36;;;;;;;3.23;2.20;;;11.40;99.90;;;;;;5098038;28;20197;-68
2022/09/01 02:33:04;;;;;;;2.70;2.00;;;11.40;99.90;;;;;;5115095;28;20654;-69
2022/09/01 02:35:33;;;;;;;1.93;1.80;;;11.10;99.90;;;;;;5095296;28;20576;-69
2022/09/01 02:37:59;;;;;;;2.20;2.00;;;10.90;99.90;;;;;;5095758;28;20232;-68
2022/09/01 02:40:29;;;;;;;2.27;2.03;;;10.90;99.90;;;;;;5094880;28;20578;-69
2022/09/01 02:42:57;;;;;;;2.00;1.80;;;11.00;99.90;;;;;;5095561;28;20304;-68
2022/09/01 02:45:24;;;;;;;2.73;1.57;;;11.20;99.90;;;;;;5096088;27;20213;-69
2022/09/01 02:47:52;;;;;;;2.80;2.03;;;11.30;99.90;;;;;;5121167;27;20197;-69
2022/09/01 02:50:21;;;;;;;2.03;1.80;;;11.30;99.90;;;;;;5100975;28;20228;-68
2022/09/01 02:52:51;;;;;;;3.27;1.83;;;11.20;99.90;;;;;;5106975;28;20193;-69
2022/09/01 02:55:20;;;;;;;2.00;1.67;;;11.20;99.90;;;;;;5096919;28;20566;-68
2022/09/01 02:57:48;;;;;;;2.10;2.00;;;11.40;99.90;;;;;;5104967;28;20197;-68
2022/09/01 03:00:21;;;;;;;5.57;3.33;;;11.50;99.90;;;;;;5095913;28;20209;-68
2022/09/01 03:02:51;;;;;;;14.70;9.13;;;11.40;99.90;;;;;;5100862;28;20224;-68
2022/09/01 03:05:24;;;;;;;4.43;2.50;;;11.50;99.90;;;;;;5113812;28;20212;-70
2022/09/01 03:07:55;;;;;;;2.57;2.37;;;11.30;99.90;;;;;;5109791;28;20229;-68
2022/09/01 03:10:30;;;;;;;3.73;2.63;;;11.40;99.90;;;;;;5100369;28;20186;-68
2022/09/01 03:12:58;;;;;;;3.70;3.13;;;11.50;99.90;;;;;;5107404;28;20193;-68
2022/09/01 03:15:25;;;;;;;3.63;3.30;;;11.40;99.90;;;;;;5112175;28;20200;-68
2022/09/01 03:17:52;;;;;;;6.20;4.10;;;11.20;99.90;;;;;;5111662;27;20569;-68
2022/09/01 03:20:22;;;;;;;2.63;2.40;;;10.70;99.90;;;;;;5105219;28;20204;-71
2022/09/01 03:22:50;;;;;;;5.07;2.50;;;10.70;99.90;;;;;;5103434;27;20220;-68
2022/09/01 03:25:18;;;;;;;4.70;2.53;;;10.50;99.90;;;;;;5104999;28;20732;-68
2022/09/01 03:27:46;;;;;;;3.07;2.60;;;10.30;99.90;;;;;;5114656;28;20205;-68
2022/09/01 03:30:14;;;;;;;4.03;3.30;;;10.40;99.90;;;;;;5114867;28;20193;-68
2022/09/01 03:32:40;;;;;;;4.77;3.53;;;10.40;99.90;;;;;;5115331;28;20226;-68
2022/09/01 03:35:08;;;;;;;6.43;3.50;;;10.50;99.90;;;;;;5100128;28;20224;-68
2022/09/01 03:37:38;;;;;;;4.87;3.10;;;10.50;99.90;;;;;;5095079;28;20213;-68
2022/09/01 03:40:08;;;;;;;7.33;3.23;;;10.60;99.90;;;;;;5094430;28;20208;-68
2022/09/01 03:42:35;;;;;;;6.40;3.70;;;10.50;99.90;;;;;;5094941;28;20282;-68
2022/09/01 03:45:08;;;;;;;5.40;3.07;;;10.40;99.90;;;;;;5105946;28;20559;-68
2022/09/01 03:47:39;;;;;;;3.77;2.90;;;10.30;99.90;;;;;;5114288;28;20204;-68
2022/09/01 03:50:12;;;;;;;3.27;2.90;;;10.30;99.90;;;;;;5110226;28;20712;-68
2022/09/01 03:52:41;;;;;;;6.73;3.50;;;10.20;99.90;;;;;;5123833;27;20242;-68
2022/09/01 03:55:09;;;;;;;9.77;5.77;;;10.20;99.90;;;;;;5118944;27;20742;-68
2022/09/01 03:57:40;;;;;;;15.47;6.87;;;10.10;99.90;;;;;;5113461;28;20208;-70
2022/09/01 04:00:19;;;;;;;16.67;4.40;;;10.20;99.90;;;;;;5093521;28;20300;-70
2022/09/01 04:02:48;;;;;;;5.17;2.33;;;10.10;99.90;;;;;;5094041;28;20633;-69
2022/09/01 04:05:15;;;;;;;4.27;2.20;;;10.10;99.90;;;;;;5093028;28;20240;-71
2022/09/01 04:07:44;;;;;;;3.60;2.30;;;10.10;99.90;;;;;;5093867;28;20206;-69
2022/09/01 04:10:11;;;;;;;2.20;1.90;;;9.90;99.90;;;;;;5092522;28;20202;-70
2022/09/01 04:12:38;;;;;;;3.90;2.60;;;10.00;99.90;;;;;;5093724;28;20212;-68
2022/09/01 04:15:07;;;;;;;3.60;2.10;;;10.20;99.90;;;;;;5092720;28;20198;-69
2022/09/01 04:20:19;;;;;;;2.77;2.30;;;10.50;99.90;;;;;;5093199;28;20264;-69
2022/09/01 04:22:49;;;;;;;2.10;1.80;;;10.50;99.90;;;;;;5093105;28;20262;-68
2022/09/01 04:25:17;;;;;;;3.03;2.73;;;10.40;99.90;;;;;;5091696;28;20202;-68
2022/09/01 04:27:46;;;;;;;2.60;2.40;;;10.50;99.90;;;;;;5097581;28;20212;-71
2022/09/01 04:30:13;;;;;;;4.30;2.53;;;10.30;99.90;;;;;;5115762;27;20223;-68
2022/09/01 04:32:40;;;;;;;2.53;2.33;;;10.40;99.90;;;;;;5104693;28;20678;-69
2022/09/01 04:35:10;;;;;;;2.80;2.30;;;10.10;99.90;;;;;;5109352;28;20607;-70
2022/09/01 04:37:37;;;;;;;4.47;2.50;;;10.10;99.90;;;;;;5092115;28;20209;-71
2022/09/01 04:40:10;;;;;;;2.57;2.10;;;10.00;99.90;;;;;;5093252;28;20679;-72
2022/09/01 04:42:37;;;;;;;3.17;2.43;;;10.30;99.90;;;;;;5092525;28;20212;-71
2022/09/01 04:45:09;;;;;;;4.13;2.60;;;10.30;99.90;;;;;;5093664;28;20205;-72
2022/09/01 04:47:40;;;;;;;5.83;2.50;;;10.40;99.90;;;;;;5093501;28;20208;-72
2022/09/01 04:50:12;;;;;;;5.93;3.17;;;10.30;99.90;;;;;;5092845;28;20216;-73
2022/09/01 04:52:40;;;;;;;4.87;2.80;;;10.40;99.90;;;;;;5093484;28;20245;-72
2022/09/01 04:55:16;;;;;;;4.97;3.67;;;10.50;99.90;;;;;;5093619;28;20209;-71
2022/09/01 04:57:46;;;;;;;6.93;5.70;;;10.50;99.90;;;;;;5092786;28;20568;-73
2022/09/01 05:00:21;;;;;;;7.70;5.47;;;10.60;99.90;;;;;;5093572;28;20206;-73
2022/09/01 05:02:48;;;;;;;4.63;3.97;;;10.70;99.90;;;;;;5093208;28;20312;-71
2022/09/01 05:05:15;;;;;;;2.97;2.20;;;10.80;99.90;;;;;;5094501;28;20202;-71
2022/09/01 05:07:42;;;;;;;4.83;2.80;;;11.00;99.90;;;;;;5122406;27;20546;-71
2022/09/01 05:10:11;;;;;;;4.93;2.37;;;10.90;99.90;;;;;;5112991;28;20204;-71
2022/09/01 05:12:38;;;;;;;3.50;2.50;;;10.80;99.90;;;;;;5111777;28;20250;-72
2022/09/01 05:15:08;;;;;;;3.07;2.20;;;11.10;99.90;;;;;;5092811;28;20205;-71
2022/09/01 05:17:37;;;;;;;3.10;2.43;;;11.50;99.90;;;;;;5092130;28;20209;-71
2022/09/01 05:20:06;;;;;;;3.27;2.43;;;11.00;99.90;;;;;;5092746;28;20202;-72
2022/09/01 05:22:34;;;;;;;4.50;2.60;;;11.20;99.90;;;;;;5091919;28;20659;-72
2022/09/01 05:25:11;;;;;;;2.97;2.40;;;11.10;99.90;;;;;;5092196;28;20206;-71
2022/09/01 05:27:41;;;;;;;4.73;2.77;;;10.90;99.90;;;;;;5092721;28;20209;-72
2022/09/01 05:30:09;;;;;;;5.23;2.67;;;10.80;99.90;;;;;;5092819;28;20255;-72
2022/09/01 05:32:38;;;;;;;6.93;3.40;;;10.90;99.90;;;;;;5092174;28;20662;-71
2022/09/01 05:35:07;;;;;;;3.97;3.23;;;11.20;99.90;;;;;;5096080;28;20236;-71
2022/09/01 05:37:36;;;;;;;4.50;2.70;;;11.20;99.90;;;;;;5113010;28;20553;-71
2022/09/01 05:40:04;;;;;;;4.00;3.20;;;11.30;99.90;;;;;;5112351;28;20211;-71
2022/09/01 05:42:31;;;;;;;2.77;2.57;;;11.40;99.90;;;;;;5112940;28;20201;-71
2022/09/01 05:45:00;;;;;;;4.83;2.63;;;11.70;99.90;;;;;;5107829;28;20307;-72
2022/09/01 05:47:27;;;;;;;3.23;2.93;;;11.70;99.90;;;;;;5121645;27;20634;-71
2022/09/01 05:49:55;;;;;;;3.60;3.30;;;11.90;99.90;;;;;;5126471;27;20683;-72
2022/09/01 05:52:25;;;;;;;3.90;3.37;;;12.10;99.90;;;;;;5092651;28;20743;-71
2022/09/01 05:54:53;;;;;;;22.10;5.33;;;12.20;99.90;;;;;;5091427;28;20205;-71
2022/09/01 05:57:19;;;;;;;24.83;4.90;;;12.20;99.90;;;;;;5091823;28;20211;-72
2022/09/01 05:59:52;;;;;;;24.77;5.00;;;12.20;99.90;;;;;;5092426;28;20208;-71
2022/09/01 06:02:20;;;;;;;11.60;3.40;;;12.30;99.90;;;;;;5108240;28;20209;-71
2022/09/01 06:04:48;;;;;;;15.73;4.17;;;12.30;99.90;;;;;;5111415;28;20232;-72
2022/09/01 06:07:16;;;;;;;5.77;3.43;;;12.30;99.90;;;;;;5111879;28;20215;-72
2022/09/01 06:09:46;;;;;;;4.87;3.40;;;12.40;99.90;;;;;;5112078;28;20567;-72
2022/09/01 06:12:20;;;;;;;5.27;3.73;;;12.60;99.90;;;;;;5112237;28;20292;-71
2022/09/01 06:14:48;;;;;;;8.87;3.87;;;12.90;99.90;;;;;;5112605;28;20664;-71
2022/09/01 06:17:17;;;;;;;9.17;3.50;;;12.90;99.90;;;;;;5112422;28;20208;-72
2022/09/01 06:19:45;;;;;;;3.77;3.37;;;13.10;99.90;;;;;;5110946;28;20397;-72
2022/09/01 06:22:12;;;;;;;4.30;3.73;;;13.00;99.90;;;;;;5111940;28;20651;-71
2022/09/01 06:24:39;;;;;;;5.93;3.90;;;13.00;99.90;;;;;;5112252;28;20576;-71
2022/09/01 06:27:08;;;;;;;5.87;3.90;;;13.00;99.90;;;;;;5112227;28;20640;-71
2022/09/01 06:29:38;;;;;;;4.60;3.70;;;13.00;99.90;;;;;;5118619;28;20200;-71
2022/09/01 06:32:09;;;;;;;4.60;3.80;;;13.20;99.90;;;;;;5117783;28;20201;-71
2022/09/01 06:34:36;;;;;;;3.93;3.50;;;13.20;99.90;;;;;;5111816;28;20207;-71
2022/09/01 06:37:05;;;;;;;3.93;3.00;;;13.40;99.90;;;;;;5105495;28;20204;-71
2022/09/01 06:39:33;;;;;;;6.63;3.20;;;13.80;99.90;;;;;;5112201;28;20253;-71
2022/09/01 06:42:01;;;;;;;3.20;3.00;;;13.70;99.90;;;;;;5112187;28;20220;-72
2022/09/01 06:44:30;;;;;;;10.67;3.37;;;13.70;99.90;;;;;;5106935;28;20225;-71
2022/09/01 06:46:59;;;;;;;8.47;3.40;;;13.50;99.90;;;;;;5092173;28;20201;-71
2022/09/01 06:49:31;;;;;;;8.83;3.33;;;13.60;99.90;;;;;;5092249;28;20262;-71
2022/09/01 06:51:58;;;;;;;4.77;3.17;;;13.60;99.90;;;;;;5091782;28;20710;-71
2022/09/01 06:54:26;;;;;;;3.33;2.83;;;13.60;99.90;;;;;;5091208;28;20194;-72
2022/09/01 06:56:53;;;;;;;8.20;3.60;;;13.80;99.90;;;;;;5092194;28;20202;-71
2022/09/01 06:59:20;;;;;;;4.93;3.30;;;14.00;99.90;;;;;;5091856;28;20211;-71
2022/09/01 07:01:48;;;;;;;5.23;3.70;;;14.40;99.90;;;;;;5091311;28;20212;-72
2022/09/01 07:04:20;;;;;;;4.67;3.47;;;14.20;99.90;;;;;;5091499;28;20625;-71
2022/09/01 07:06:50;;;;;;;9.63;3.60;;;14.20;99.90;;;;;;5095743;28;20198;-71
2022/09/01 07:09:19;;;;;;;6.27;3.13;;;14.10;99.90;;;;;;5095273;28;20256;-72
2022/09/01 07:11:47;;;;;;;9.50;3.90;;;14.30;99.90;;;;;;5095180;28;20210;-72
2022/09/01 07:14:14;;;;;;;9.07;3.70;;;14.40;99.90;;;;;;5095210;28;20660;-71
2022/09/01 07:16:43;;;;;;;8.70;3.30;;;14.50;99.90;;;;;;5114045;27;20208;-71
2022/09/01 07:19:12;;;;;;;6.17;3.03;;;14.50;99.90;;;;;;5115353;27;20222;-72
2022/09/01 07:21:39;;;;;;;6.30;3.03;;;14.50;99.90;;;;;;5106570;27;20244;-72
2022/09/01 07:24:06;;;;;;;4.57;3.03;;;14.60;99.90;;;;;;5108158;27;20212;-71
2022/09/01 07:26:34;;;;;;;3.60;3.30;;;14.70;99.90;;;;;;5099982;27;20202;-72
2022/09/01 07:29:03;;;;;;;4.40;2.70;;;14.90;99.90;;;;;;5120715;27;20196;-71
2022/09/01 07:31:33;;;;;;;5.53;2.73;;;15.00;99.90;;;;;;5125789;27;20193;-71
2022/09/01 07:34:04;;;;;;;5.57;2.73;;;15.20;99.90;;;;;;5135647;27;20200;-71
2022/09/01 07:36:34;;;;;;;2.90;2.30;;;15.60;99.90;;;;;;5113815;27;20246;-72
2022/09/01 07:39:02;;;;;;;5.80;2.90;;;15.90;99.90;;;;;;5115583;28;20237;-72
2022/09/01 07:41:29;;;;;;;5.33;3.53;;;15.80;99.90;;;;;;5113909;28;20211;-72
2022/09/01 07:43:56;;;;;;;5.90;3.00;;;15.80;99.90;;;;;;5113950;28;20710;-72
2022/09/01 07:46:25;;;;;;;4.37;2.10;;;16.00;99.90;;;;;;5094626;28;20205;-71
2022/09/01 07:48:54;;;;;;;4.23;2.10;;;16.20;99.90;;;;;;5094659;28;20623;-71
2022/09/01 07:51:22;;;;;;;2.57;2.10;;;16.30;99.90;;;;;;5094867;28;20249;-68
2022/09/01 07:53:49;;;;;;;3.45;2.13;;;16.20;99.90;;;;;;5094239;28;20208;-68
2022/09/01 07:56:18;;;;;;;2.20;1.97;;;16.10;99.90;;;;;;5094530;28;20186;-68
2022/09/01 07:58:47;;;;;;;4.40;1.88;;;16.30;99.90;;;;;;5094544;28;20206;-68
2022/09/01 08:01:17;;;;;;;2.13;1.50;;;16.30;99.90;;;;;;5094520;28;20197;-68
2022/09/01 08:03:46;;;;;;;4.07;1.60;;;16.50;99.90;;;;;;5094167;28;20225;-68
2022/09/01 08:06:18;;;;;;;3.33;1.40;;;16.50;99.90;;;;;;5094669;28;20205;-68
2022/09/01 08:08:45;;;;;;;1.60;1.50;;;16.70;99.90;;;;;;5124722;27;20192;-68
2022/09/01 08:11:16;;;;;;;1.48;1.30;;;16.70;99.90;;;;;;5135106;27;20185;-68
2022/09/01 08:13:43;;;;;;;2.25;1.77;;;16.80;99.90;;;;;;5119255;27;20204;-68
2022/09/01 08:16:11;;;;;;;3.35;1.38;;;16.90;99.90;;;;;;5113879;28;20219;-68
2022/09/01 08:18:38;;;;;;;1.88;1.40;;;17.20;99.90;;;;;;5114268;28;20200;-68
2022/09/01 08:21:08;;;;;;;1.23;1.13;;;17.20;99.90;;;;;;5114585;28;20215;-68
2022/09/01 08:23:36;;;;;;;2.95;1.23;;;17.40;99.90;;;;;;5114475;28;20203;-68
2022/09/01 08:26:06;;;;;;;4.07;1.58;;;17.30;99.90;;;;;;5114470;28;20197;-68
2022/09/01 08:28:33;;;;;;;2.42;1.38;;;17.30;99.90;;;;;;5114473;28;20651;-68
2022/09/01 08:31:03;;;;;;;1.63;1.50;;;17.50;99.90;;;;;;5114083;28;20201;-68
2022/09/01 08:33:34;;;;;;;1.25;1.15;;;17.70;99.90;;;;;;5114793;28;20240;-68
2022/09/01 08:36:01;;;;;;;2.05;1.17;;;17.50;99.90;;;;;;5113476;28;20738;-68
2022/09/01 08:38:30;;;;;;;2.15;1.38;;;17.20;99.90;;;;;;5114295;28;20204;-68
2022/09/01 08:40:58;;;;;;;1.42;1.05;;;16.90;99.90;;;;;;5113102;28;20211;-68
2022/09/01 08:43:44;;;;;;;2.10;1.00;;;16.80;99.90;;;;;;5113748;28;20204;-68
2022/09/01 08:46:16;;;;;;;3.42;1.10;;;16.90;99.90;;;;;;5113008;28;20204;-68
2022/09/01 08:48:46;;;;;;;2.55;1.00;;;16.90;99.90;;;;;;5109685;27;20211;-68
2022/09/01 08:51:22;;;;;;;1.67;0.98;;;16.90;99.90;;;;;;5125652;27;20192;-68
2022/09/01 08:54:00;;;;;;;2.58;1.30;;;16.90;99.90;;;;;;5134636;27;20650;-68
2022/09/01 08:56:27;;;;;;;1.15;0.93;;;17.00;99.90;;;;;;5112813;27;20201;-68
2022/09/01 08:58:54;;;;;;;1.30;1.13;;;17.00;99.90;;;;;;5102626;28;20205;-68
2022/09/01 09:01:26;;;;;;;1.08;0.98;;;17.30;99.90;;;;;;5092565;28;20197;-68
2022/09/01 09:04:13;;;;;;;3.10;1.25;;;17.60;99.90;;;;;;5092297;28;20241;-68
2022/09/01 09:06:53;;;;;;;0.98;0.98;;;17.80;99.90;;;;;;5093705;28;20562;-68
2022/09/01 09:09:30;;;;;;;1.80;0.90;;;17.60;99.90;;;;;;5092481;28;20296;-68
2022/09/01 09:12:08;;;;;;;2.10;1.05;;;18.10;99.90;;;;;;5092382;28;20209;-68
2022/09/01 09:14:51;;;;;;;2.05;1.05;;;18.50;99.90;;;;;;5112215;27;20605;-68
2022/09/01 09:17:24;;;;;;;1.15;1.05;;;18.90;99.90;;;;;;5129387;27;20220;-69
2022/09/01 09:19:51;;;;;;;1.73;1.08;;;19.00;89.10;;;;;;5133851;27;20633;-68
2022/09/01 09:22:19;;;;;;;3.95;1.27;;;19.20;87.10;;;;;;5113079;27;20290;-69
2022/09/01 09:24:54;;;;;;;2.15;1.05;;;19.40;94.20;;;;;;5102094;28;20217;-69
2022/09/01 09:27:23;;;;;;;3.15;1.10;;;19.80;75.50;;;;;;5092856;28;20639;-68
2022/09/01 09:29:52;;;;;;;2.30;1.20;;;19.80;80.60;;;;;;5092642;28;20205;-69
2022/09/01 09:32:21;;;;;;;3.33;0.98;;;20.00;58.20;;;;;;5108326;27;20234;-69
2022/09/01 09:34:48;;;;;;;2.05;1.00;;;20.30;53.40;;;;;;5112114;28;20223;-69
2022/09/01 09:37:24;;;;;;;0.85;0.85;;;20.60;44.80;;;;;;5099908;28;20239;-69
2022/09/01 09:40:09;;;;;;;2.05;1.13;;;20.70;40.00;;;;;;5112485;28;20201;-68
2022/09/01 09:42:38;;;;;;;1.77;0.70;;;21.00;31.80;;;;;;5112384;28;20205;-69
2022/09/01 09:45:13;;;;;;;4.40;1.02;;;21.00;32.50;;;;;;5109338;28;20549;-69
2022/09/01 09:47:42;;;;;;;2.08;0.82;;;21.10;33.00;;;;;;5092376;28;20288;-69
2022/09/01 09:50:17;;;;;;;3.22;1.00;;;21.20;32.80;;;;;;5092605;28;20211;-69
2022/09/01 09:52:45;;;;;;;3.47;0.93;;;21.40;28.00;;;;;;5092656;28;20209;-69
2022/09/01 09:55:23;;;;;;;2.00;0.63;;;21.30;24.40;;;;;;5092397;28;20241;-69
2022/09/01 09:57:51;;;;;;;0.70;0.70;;;21.50;27.00;;;;;;5092361;28;20259;-69
2022/09/01 10:00:25;;;;;;;0.80;0.50;;;21.50;21.70;;;;;;5096874;28;20200;-69
2022/09/01 10:02:56;;;;;;;2.72;0.65;;;21.50;19.80;;;;;;5116137;27;20551;-69
2022/09/01 10:05:33;;;;;;;1.58;0.70;;;21.80;11.10;;;;;;5112393;27;20224;-69
2022/09/01 10:08:00;;;;;;;0.90;0.90;;;21.90;7.50;;;;;;5106025;28;20207;-69
2022/09/01 10:10:37;;;;;;;1.75;1.05;;;21.80;7.50;;;;;;5112714;28;20201;-68
2022/09/01 10:13:07;;;;;;;2.05;0.60;;;21.80;2.30;;;;;;5107889;28;20212;-69
2022/09/01 10:15:35;;;;;;;0.85;0.70;;;22.10;13.10;;;;;;5092462;28;20205;-68
2022/09/01 10:18:07;;;;;;;1.20;0.80;;;22.10;2.90;;;;;;5091657;28;20197;-69
2022/09/01 10:20:38;;;;;;;1.75;0.90;;;22.20;1.00;;;;;;5092467;28;20216;-69
2022/09/01 10:23:05;;;;;;;4.28;0.80;;;22.30;1.00;;;;;;5092413;28;20221;-69
2022/09/01 10:25:35;;;;;;;1.15;0.80;;;22.40;1.00;;;;;;5092345;28;20576;-69
2022/09/01 10:28:10;;;;;;;2.50;1.00;;;22.40;1.00;;;;;;5092556;28;20675;-69
2022/09/01 10:30:41;;;;;;;10.90;1.70;;;22.30;1.00;;;;;;5091846;28;20200;-69
2022/09/01 10:33:09;;;;;;;4.90;1.02;;;22.30;1.00;;;;;;5091487;28;20296;-69
2022/09/01 10:35:39;;;;;;;6.57;1.08;;;22.50;1.00;;;;;;5092055;28;20206;-68
2022/09/01 10:38:08;;;;;;;2.33;1.13;;;22.50;1.00;;;;;;5092420;28;20220;-68
2022/09/01 10:40:44;;;;;;;0.75;0.60;;;22.40;1.00;;;;;;5094271;28;20209;-69
2022/09/01 10:43:35;;;;;;;1.33;0.50;;;22.50;1.00;;;;;;5101063;28;20313;-69
2022/09/01 10:46:26;;;;;;;0.70;0.60;;;23.00;1.00;;;;;;5116440;28;20258;-68
2022/09/01 10:48:55;;;;;;;2.83;0.90;;;22.50;1.00;;;;;;5105535;28;20209;-68
2022/09/01 10:51:43;;;;;;;0.45;0.45;;;22.60;1.00;;;;;;5077337;28;20208;-69
2022/09/01 10:54:31;;;;;;;5.50;1.15;;;23.00;1.00;;;;;;5095906;28;20213;-68
2022/09/01 10:57:01;;;;;;;1.40;0.70;;;22.20;1.00;;;;;;5095846;28;20205;-69
2022/09/01 10:59:29;;;;;;;1.45;0.80;;;22.40;1.00;;;;;;5095269;28;20198;-69
2022/09/01 11:02:14;;;;;;;0.60;0.60;;;22.40;1.00;;;;;;5095338;28;20209;-69
2022/09/01 11:05:23;;;;;;;2.63;0.60;;;22.80;1.00;;;;;;5095629;28;20614;-68
2022/09/01 11:07:50;;;;;;;0.77;0.65;;;23.20;1.00;;;;;;5074706;28;20205;-69
2022/09/01 11:10:36;;;;;;;4.82;3.33;;;23.40;1.00;;;;;;5119776;27;20639;-70
2022/09/01 11:13:34;;;;;;;0.60;0.60;;;23.40;1.00;;;;;;5095351;28;20213;-71
2022/09/01 11:16:27;;;;;;;0.50;0.50;;;23.10;1.00;;;;;;5107436;27;20205;-70
2022/09/01 11:18:55;;;;;;;2.47;0.63;;;23.10;1.00;;;;;;5101014;28;20197;-70
2022/09/01 11:21:27;;;;;;;2.13;0.52;;;23.20;1.00;;;;;;5101838;28;20204;-70
2022/09/01 11:24:43;;;;;;;1.25;0.60;;;23.40;1.00;;;;;;5101843;28;20193;-71
2022/09/01 11:27:12;;;;;;;1.58;0.63;;;23.30;1.00;;;;;;5065800;28;20281;-71
2022/09/01 11:29:55;;;;;;;1.45;0.50;;;23.50;1.00;;;;;;5032898;28;20215;-70
2022/09/01 11:32:26;;;;;;;1.70;0.40;;;23.70;1.00;;;;;;5066744;28;20208;-71
2022/09/01 11:34:57;;;;;;;1.48;0.50;;;23.60;1.00;;;;;;5097131;28;20205;-71
2022/09/01 11:37:25;;;;;;;1.10;0.80;;;23.50;1.00;;;;;;5115754;28;20697;-71
2022/09/01 11:39:55;;;;;;;0.47;0.47;;;23.50;1.00;;;;;;5114387;28;20232;-70
2022/09/01 11:42:26;;;;;;;0.50;0.47;;;23.10;1.00;;;;;;5113020;28;20205;-71
2022/09/01 11:44:57;;;;;;;2.28;0.82;;;22.60;1.00;;;;;;5094216;28;20688;-71
2022/09/01 11:47:28;;;;;;;7.03;0.85;;;22.50;1.00;;;;;;5093583;28;20225;-71
2022/09/01 11:49:58;;;;;;;0.60;0.40;;;22.80;1.00;;;;;;5094692;28;20263;-70
2022/09/01 11:52:29;;;;;;;3.33;0.80;;;23.40;1.00;;;;;;5093763;28;20236;-71
2022/09/01 11:54:56;;;;;;;2.72;0.50;;;23.60;1.00;;;;;;5094791;28;20283;-70
2022/09/01 11:57:27;;;;;;;1.75;0.57;;;23.40;1.00;;;;;;5095064;28;20280;-71
2022/09/01 11:59:57;;;;;;;0.60;0.60;;;23.60;1.00;;;;;;5118719;27;20654;-70
2022/09/01 12:02:26;;;;;;;2.83;0.75;;;23.40;1.00;;;;;;5106891;28;20197;-70
2022/09/01 12:04:55;;;;;;;0.95;0.47;;;23.50;1.00;;;;;;5113954;28;20201;-70
2022/09/01 12:07:30;;;;;;;10.20;1.95;;;23.80;1.00;;;;;;5115078;28;20201;-70
2022/09/01 12:09:56;;;;;;;2.08;0.90;;;23.80;1.00;;;;;;5114308;28;20204;-70
2022/09/01 12:12:33;;;;;;;1.27;0.40;;;23.50;1.00;;;;;;5095941;28;20212;-70
2022/09/01 12:15:05;;;;;;;1.13;0.50;;;23.50;1.00;;;;;;5093787;28;20205;-70
2022/09/01 12:17:32;;;;;;;3.95;0.93;;;23.70;1.00;;;;;;5094503;28;20206;-70
2022/09/01 12:20:22;;;;;;;1.25;0.77;;;22.80;1.00;;;;;;5094341;28;20543;-70
2022/09/01 12:22:49;;;;;;;1.52;0.70;;;22.40;1.00;;;;;;5094200;28;20666;-70
2022/09/01 12:25:21;;;;;;;0.85;0.50;;;22.40;1.00;;;;;;5093351;28;20214;-71
2022/09/01 12:27:48;;;;;;;11.55;1.30;;;22.30;1.00;;;;;;5094062;28;20205;-71
2022/09/01 12:30:17;;;;;;;2.17;0.40;;;22.20;1.00;;;;;;5113062;28;20651;-70
2022/09/01 12:32:44;;;;;;;2.55;0.68;;;22.20;1.00;;;;;;5113940;28;20201;-70
2022/09/01 12:35:18;;;;;;;3.22;0.63;;;22.60;1.00;;;;;;5107561;28;20678;-70
2022/09/01 12:37:45;;;;;;;2.03;0.93;;;22.30;1.00;;;;;;5094295;28;20217;-70
2022/09/01 12:40:24;;;;;;;0.88;0.52;;;22.40;1.00;;;;;;5112810;28;20205;-70
2022/09/01 12:42:53;;;;;;;2.45;0.60;;;22.30;1.00;;;;;;5103418;27;20208;-70
2022/09/01 12:45:40;;;;;;;1.30;0.60;;;22.20;1.00;;;;;;5126074;27;20747;-70
2022/09/01 12:48:23;;;;;;;6.45;1.17;;;22.50;1.00;;;;;;5092491;28;20213;-70
2022/09/01 12:50:50;;;;;;;2.28;1.00;;;22.40;1.00;;;;;;5129041;27;20733;-70
2022/09/01 12:53:24;;;;;;;10.30;0.98;;;22.10;1.00;;;;;;5120068;27;20200;-70
2022/09/01 12:56:20;;;;;;;3.30;0.50;;;22.10;1.00;;;;;;5100227;27;20197;-70
2022/09/01 12:58:50;;;;;;;0.93;0.50;;;22.00;1.00;;;;;;5102465;28;20305;-70
2022/09/01 13:01:35;;;;;;;1.77;1.00;;;21.90;1.00;;;;;;5106285;28;20625;-70
2022/09/01 13:04:14;;;;;;;2.67;0.68;;;21.90;1.00;;;;;;5099269;28;20561;-70
2022/09/01 13:06:42;;;;;;;2.45;0.63;;;21.90;1.00;;;;;;5102584;28;20217;-70
2022/09/01 13:09:08;;;;;;;5.30;1.00;;;21.90;1.00;;;;;;5101698;28;20466;-70
2022/09/01 13:11:35;;;;;;;2.40;0.68;;;22.10;1.00;;;;;;5113079;27;20204;-71